createdAt,value
2018-03-23T00:00:39.225Z,0
2018-03-23T00:01:39.247Z,0
2018-03-23T00:02:39.274Z,0
2018-03-23T00:03:39.253Z,0
2018-03-23T00:04:39.266Z,0
2018-03-23T00:05:39.278Z,0
2018-03-23T00:06:39.285Z,0
2018-03-23T00:07:39.014Z,0
2018-03-23T00:08:39.301Z,0
2018-03-23T00:09:38.470Z,0
2018-03-23T00:10:38.480Z,0
2018-03-23T00:11:39.065Z,0
2018-03-23T00:12:38.783Z,0
2018-03-23T00:13:38.792Z,0
2018-03-23T00:14:39.141Z,0
2018-03-23T00:15:39.099Z,0
2018-03-23T00:16:38.830Z,0
2018-03-23T00:17:39.414Z,0
2018-03-23T00:18:39.431Z,0
2018-03-23T00:19:38.915Z,0
2018-03-23T00:20:39.157Z,0
2018-03-23T00:21:39.455Z,0
2018-03-23T00:22:39.463Z,0
2018-03-23T00:23:39.476Z,0
2018-03-23T00:24:39.204Z,0
2018-03-23T00:25:39.536Z,0
2018-03-23T00:26:39.231Z,0
2018-03-23T00:27:39.234Z,0
2018-03-23T00:28:39.244Z,0
2018-03-23T00:29:39.540Z,0
2018-03-23T00:30:38.978Z,0
2018-03-23T00:31:39.558Z,0
2018-03-23T00:32:39.289Z,0
2018-03-23T00:33:39.580Z,0
2018-03-23T00:34:39.307Z,0
2018-03-23T00:35:39.324Z,0
2018-03-23T00:36:39.046Z,0
2018-03-23T00:37:39.338Z,0
2018-03-23T00:38:39.066Z,0
2018-03-23T00:39:39.080Z,0
2018-03-23T00:40:39.373Z,0
2018-03-23T00:41:39.677Z,0
2018-03-23T00:42:39.114Z,0
2018-03-23T00:43:39.417Z,0
2018-03-23T00:44:39.767Z,0
2018-03-23T00:45:39.426Z,0
2018-03-23T00:46:39.441Z,0
2018-03-23T00:47:39.741Z,0
2018-03-23T00:48:39.752Z,0
2018-03-23T00:49:39.816Z,0
2018-03-23T00:50:39.772Z,0
2018-03-23T00:51:39.782Z,0
2018-03-23T00:52:39.791Z,0
2018-03-23T00:53:39.240Z,0
2018-03-23T00:54:39.853Z,0
2018-03-23T00:55:39.268Z,0
2018-03-23T00:56:39.266Z,0
2018-03-23T00:57:39.565Z,0
2018-03-23T00:58:39.573Z,0
2018-03-23T00:59:39.978Z,0
2018-03-23T01:00:39.596Z,0
2018-03-23T01:01:39.602Z,0
2018-03-23T01:02:39.051Z,0
2018-03-23T01:03:39.626Z,0
2018-03-23T01:04:39.924Z,0
2018-03-23T01:05:39.647Z,0
2018-03-23T01:06:39.741Z,0
2018-03-23T01:07:39.682Z,0
2018-03-23T01:08:39.699Z,0
2018-03-23T01:09:39.983Z,0
2018-03-23T01:10:39.989Z,0
2018-03-23T01:11:39.714Z,0
2018-03-23T01:12:39.441Z,0
2018-03-23T01:13:39.456Z,0
2018-03-23T01:14:39.583Z,0
2018-03-23T01:15:39.770Z,0
2018-03-23T01:16:39.770Z,0
2018-03-23T01:17:40.078Z,0
2018-03-23T01:18:39.805Z,0
2018-03-23T01:19:39.235Z,0
2018-03-23T01:20:39.844Z,0
2018-03-23T01:21:39.825Z,0
2018-03-23T01:22:39.844Z,0
2018-03-23T01:23:39.561Z,0
2018-03-23T01:24:39.860Z,0
2018-03-23T01:25:39.868Z,0
2018-03-23T01:26:40.164Z,0
2018-03-23T01:27:40.175Z,0
2018-03-23T01:28:39.338Z,0
2018-03-23T01:29:39.916Z,0
2018-03-23T01:30:39.939Z,0
2018-03-23T01:31:40.223Z,0
2018-03-23T01:32:39.665Z,0
2018-03-23T01:33:39.965Z,0
2018-03-23T01:34:39.988Z,0
2018-03-23T01:35:39.982Z,0
2018-03-23T01:36:40.057Z,0
2018-03-23T01:37:40.006Z,0
2018-03-23T01:38:39.731Z,0
2018-03-23T01:39:40.310Z,0
2018-03-23T01:40:39.760Z,0
2018-03-23T01:41:39.781Z,0
2018-03-23T01:42:40.345Z,0
2018-03-23T01:43:40.349Z,0
2018-03-23T01:44:40.368Z,0
2018-03-23T01:45:40.380Z,0
2018-03-23T01:46:40.106Z,0
2018-03-23T01:47:39.831Z,0
2018-03-23T01:48:40.415Z,0
2018-03-23T01:49:40.148Z,0
2018-03-23T01:50:40.146Z,0
2018-03-23T01:51:39.875Z,0
2018-03-23T01:52:40.463Z,0
2018-03-23T01:53:40.175Z,0
2018-03-23T01:54:40.474Z,0
2018-03-23T01:55:40.198Z,0
2018-03-23T01:56:40.223Z,0
2018-03-23T01:57:40.235Z,0
2018-03-23T01:58:40.240Z,0
2018-03-23T01:59:39.961Z,0
2018-03-23T02:00:39.975Z,0
2018-03-23T02:01:40.552Z,0
2018-03-23T02:02:40.276Z,0
2018-03-23T02:03:40.290Z,0
2018-03-23T02:04:40.014Z,0
2018-03-23T02:05:40.318Z,0
2018-03-23T02:06:40.609Z,0
2018-03-23T02:07:40.333Z,0
2018-03-23T02:08:40.642Z,0
2018-03-23T02:09:40.075Z,0
2018-03-23T02:10:40.369Z,0
2018-03-23T02:11:40.376Z,0
2018-03-23T02:12:40.383Z,0
2018-03-23T02:13:40.393Z,0
2018-03-23T02:14:40.405Z,0
2018-03-23T02:15:40.416Z,0
2018-03-23T02:16:40.710Z,0
2018-03-23T02:17:40.438Z,0
2018-03-23T02:18:40.454Z,0
2018-03-23T02:19:40.467Z,0
2018-03-23T02:20:40.522Z,0
2018-03-23T02:21:40.549Z,0
2018-03-23T02:22:40.501Z,0
2018-03-23T02:23:40.505Z,0
2018-03-23T02:24:40.823Z,0
2018-03-23T02:25:40.825Z,0
2018-03-23T02:26:40.538Z,0
2018-03-23T02:27:39.981Z,0
2018-03-23T02:28:40.581Z,0
2018-03-23T02:29:40.854Z,0
2018-03-23T02:30:40.638Z,0
2018-03-23T02:31:40.599Z,0
2018-03-23T02:32:40.893Z,0
2018-03-23T02:33:40.912Z,0
2018-03-23T02:34:40.920Z,0
2018-03-23T02:35:40.071Z,0
2018-03-23T02:36:40.946Z,0
2018-03-23T02:37:40.959Z,0
2018-03-23T02:38:40.675Z,0
2018-03-23T02:39:40.685Z,0
2018-03-23T02:40:40.693Z,0
2018-03-23T02:41:40.137Z,0
2018-03-23T02:42:41.003Z,0
2018-03-23T02:43:40.737Z,0
2018-03-23T02:44:40.749Z,0
2018-03-23T02:45:40.182Z,0
2018-03-23T02:46:40.767Z,0
2018-03-23T02:47:41.052Z,0
2018-03-23T02:48:41.073Z,0
2018-03-23T02:49:41.094Z,0
2018-03-23T02:50:41.137Z,0
2018-03-23T02:51:40.533Z,0
2018-03-23T02:52:41.108Z,0
2018-03-23T02:53:41.125Z,0
2018-03-23T02:54:41.195Z,0
2018-03-23T02:55:40.857Z,0
2018-03-23T02:56:40.592Z,0
2018-03-23T02:57:41.167Z,0
2018-03-23T02:58:41.179Z,0
2018-03-23T02:59:41.191Z,0
2018-03-23T03:00:40.925Z,0
2018-03-23T03:01:40.693Z,0
2018-03-23T03:02:41.229Z,0
2018-03-23T03:03:41.246Z,0
2018-03-23T03:04:40.677Z,0
2018-03-23T03:05:41.256Z,0
2018-03-23T03:06:41.281Z,0
2018-03-23T03:07:40.707Z,0
2018-03-23T03:08:41.005Z,0
2018-03-23T03:09:41.016Z,0
2018-03-23T03:10:41.312Z,0
2018-03-23T03:11:41.315Z,0
2018-03-23T03:12:40.762Z,0
2018-03-23T03:13:41.343Z,0
2018-03-23T03:14:41.067Z,0
2018-03-23T03:15:41.093Z,0
2018-03-23T03:16:41.432Z,0
2018-03-23T03:17:41.396Z,0
2018-03-23T03:18:40.828Z,0
2018-03-23T03:19:41.406Z,0
2018-03-23T03:20:41.426Z,0
2018-03-23T03:21:41.479Z,0
2018-03-23T03:22:41.157Z,0
2018-03-23T03:23:41.167Z,0
2018-03-23T03:24:40.903Z,0
2018-03-23T03:25:41.478Z,0
2018-03-23T03:26:41.202Z,0
2018-03-23T03:27:40.938Z,0
2018-03-23T03:28:41.524Z,0
2018-03-23T03:29:41.235Z,0
2018-03-23T03:30:40.975Z,0
2018-03-23T03:31:41.553Z,0
2018-03-23T03:32:41.274Z,0
2018-03-23T03:33:41.280Z,0
2018-03-23T03:34:41.011Z,0
2018-03-23T03:35:41.586Z,0
2018-03-23T03:36:41.311Z,0
2018-03-23T03:37:41.607Z,0
2018-03-23T03:38:41.337Z,0
2018-03-23T03:39:41.344Z,0
2018-03-23T03:40:41.075Z,0
2018-03-23T03:41:41.416Z,0
2018-03-23T03:42:41.664Z,0
2018-03-23T03:43:41.705Z,0
2018-03-23T03:44:41.686Z,0
2018-03-23T03:45:41.411Z,0
2018-03-23T03:46:41.751Z,0
2018-03-23T03:47:41.715Z,0
2018-03-23T03:48:41.728Z,0
2018-03-23T03:49:41.460Z,0
2018-03-23T03:50:41.466Z,0
2018-03-23T03:51:41.197Z,0
2018-03-23T03:52:41.782Z,0
2018-03-23T03:53:41.503Z,0
2018-03-23T03:54:41.257Z,0
2018-03-23T03:55:41.528Z,0
2018-03-23T03:56:41.249Z,0
2018-03-23T03:57:41.544Z,0
2018-03-23T03:58:41.860Z,0
2018-03-23T03:59:41.569Z,0
2018-03-23T04:00:41.862Z,0
2018-03-23T04:01:41.587Z,0
2018-03-23T04:02:41.598Z,0
2018-03-23T04:03:41.609Z,0
2018-03-23T04:04:41.911Z,0
2018-03-23T04:05:41.067Z,0
2018-03-23T04:06:41.080Z,0
2018-03-23T04:07:41.655Z,0
2018-03-23T04:08:42.024Z,0
2018-03-23T04:09:41.401Z,0
2018-03-23T04:10:41.694Z,0
2018-03-23T04:11:41.751Z,0
2018-03-23T04:12:41.710Z,0
2018-03-23T04:13:42.006Z,0
2018-03-23T04:14:42.056Z,0
2018-03-23T04:15:42.036Z,0
2018-03-23T04:16:41.472Z,0
2018-03-23T04:17:41.483Z,0
2018-03-23T04:18:42.065Z,0
2018-03-23T04:19:41.522Z,0
2018-03-23T04:20:41.796Z,0
2018-03-23T04:21:41.305Z,0
2018-03-23T04:22:42.103Z,0
2018-03-23T04:23:41.837Z,0
2018-03-23T04:24:41.561Z,0
2018-03-23T04:25:41.856Z,0
2018-03-23T04:26:41.634Z,0
2018-03-23T04:27:41.877Z,0
2018-03-23T04:28:41.887Z,0
2018-03-23T04:29:41.902Z,0
2018-03-23T04:30:41.626Z,0
2018-03-23T04:31:41.659Z,0
2018-03-23T04:32:42.217Z,0
2018-03-23T04:33:41.660Z,0
2018-03-23T04:34:41.673Z,0
2018-03-23T04:35:41.968Z,0
2018-03-23T04:36:42.314Z,0
2018-03-23T04:37:41.705Z,0
2018-03-23T04:38:41.998Z,0
2018-03-23T04:39:42.047Z,0
2018-03-23T04:40:42.027Z,0
2018-03-23T04:41:42.033Z,0
2018-03-23T04:42:42.326Z,0
2018-03-23T04:43:42.061Z,0
2018-03-23T04:44:42.065Z,0
2018-03-23T04:45:42.079Z,0
2018-03-23T04:46:42.093Z,0
2018-03-23T04:47:42.098Z,0
2018-03-23T04:48:42.403Z,0
2018-03-23T04:49:41.841Z,0
2018-03-23T04:50:42.414Z,0
2018-03-23T04:51:41.860Z,4
2018-03-23T04:52:41.872Z,0
2018-03-23T04:53:42.459Z,0
2018-03-23T04:54:42.179Z,0
2018-03-23T04:55:42.198Z,0
2018-03-23T04:56:42.490Z,4
2018-03-23T04:57:42.217Z,0
2018-03-23T04:58:42.229Z,4
2018-03-23T04:59:42.236Z,4
2018-03-23T05:00:41.962Z,4
2018-03-23T05:01:42.545Z,4
2018-03-23T05:02:42.279Z,4
2018-03-23T05:03:42.298Z,4
2018-03-23T05:04:42.007Z,8
2018-03-23T05:05:42.021Z,4
2018-03-23T05:06:42.028Z,8
2018-03-23T05:07:42.040Z,12
2018-03-23T05:08:42.616Z,12
2018-03-23T05:09:42.632Z,12
2018-03-23T05:10:42.361Z,12
2018-03-23T05:11:42.093Z,12
2018-03-23T05:12:41.811Z,12
2018-03-23T05:13:42.680Z,16
2018-03-23T05:14:42.356Z,20
2018-03-23T05:15:42.413Z,20
2018-03-23T05:16:42.422Z,24
2018-03-23T05:17:42.157Z,24
2018-03-23T05:18:42.164Z,28
2018-03-23T05:19:42.741Z,24
2018-03-23T05:20:42.472Z,24
2018-03-23T05:21:42.770Z,28
2018-03-23T05:22:42.225Z,32
2018-03-23T05:23:42.504Z,32
2018-03-23T05:24:42.526Z,32
2018-03-23T05:25:42.532Z,36
2018-03-23T05:26:42.257Z,36
2018-03-23T05:27:42.267Z,40
2018-03-23T05:28:42.279Z,48
2018-03-23T05:29:42.853Z,44
2018-03-23T05:30:42.868Z,44
2018-03-23T05:31:42.725Z,48
2018-03-23T05:32:43.452Z,48
2018-03-23T05:33:43.093Z,52
2018-03-23T05:34:42.926Z,56
2018-03-23T05:35:42.931Z,64
2018-03-23T05:36:42.665Z,68
2018-03-23T05:37:42.940Z,64
2018-03-23T05:38:42.668Z,64
2018-03-23T05:39:42.398Z,60
2018-03-23T05:40:42.503Z,60
2018-03-23T05:41:42.142Z,72
2018-03-23T05:42:42.997Z,76
2018-03-23T05:43:42.792Z,76
2018-03-23T05:44:42.173Z,76
2018-03-23T05:45:42.561Z,92
2018-03-23T05:46:42.477Z,96
2018-03-23T05:47:43.054Z,92
2018-03-23T05:48:42.785Z,100
2018-03-23T05:49:43.072Z,108
2018-03-23T05:50:43.094Z,104
2018-03-23T05:51:43.099Z,92
2018-03-23T05:52:43.105Z,96
2018-03-23T05:53:43.123Z,116
2018-03-23T05:54:42.843Z,132
2018-03-23T05:55:42.864Z,132
2018-03-23T05:56:42.878Z,132
2018-03-23T05:57:42.949Z,136
2018-03-23T05:58:43.180Z,144
2018-03-23T05:59:43.214Z,148
2018-03-23T06:00:42.630Z,172
2018-03-23T06:01:43.199Z,172
2018-03-23T06:02:42.987Z,168
2018-03-23T06:03:42.949Z,160
2018-03-23T06:04:42.967Z,160
2018-03-23T06:05:43.253Z,156
2018-03-23T06:06:42.416Z,148
2018-03-23T06:07:43.001Z,152
2018-03-23T06:08:43.030Z,152
2018-03-23T06:09:43.363Z,168
2018-03-23T06:10:43.030Z,164
2018-03-23T06:11:43.046Z,144
2018-03-23T06:12:43.333Z,120
2018-03-23T06:13:43.343Z,108
2018-03-23T06:14:43.078Z,104
2018-03-23T06:15:42.806Z,100
2018-03-23T06:16:43.094Z,92
2018-03-23T06:17:42.936Z,100
2018-03-23T06:18:43.013Z,104
2018-03-23T06:19:43.129Z,112
2018-03-23T06:20:43.509Z,116
2018-03-23T06:21:42.869Z,108
2018-03-23T06:22:43.585Z,92
2018-03-23T06:23:43.458Z,92
2018-03-23T06:24:43.188Z,92
2018-03-23T06:25:42.917Z,92
2018-03-23T06:26:43.500Z,92
2018-03-23T06:27:43.253Z,96
2018-03-23T06:28:43.522Z,92
2018-03-23T06:29:42.966Z,96
2018-03-23T06:30:43.536Z,88
2018-03-23T06:31:43.546Z,92
2018-03-23T06:32:43.284Z,88
2018-03-23T06:33:42.720Z,92
2018-03-23T06:34:43.583Z,100
2018-03-23T06:35:43.601Z,104
2018-03-23T06:36:43.605Z,116
2018-03-23T06:37:43.370Z,136
2018-03-23T06:38:43.355Z,144
2018-03-23T06:39:43.831Z,152
2018-03-23T06:40:43.375Z,172
2018-03-23T06:41:43.400Z,220
2018-03-23T06:42:43.389Z,232
2018-03-23T06:43:43.128Z,216
2018-03-23T06:44:43.129Z,200
2018-03-23T06:45:43.148Z,168
2018-03-23T06:46:43.439Z,164
2018-03-23T06:47:43.732Z,184
2018-03-23T06:48:43.536Z,196
2018-03-23T06:49:43.185Z,204
2018-03-23T06:50:42.910Z,208
2018-03-23T06:51:43.491Z,220
2018-03-23T06:52:43.220Z,220
2018-03-23T06:53:43.515Z,220
2018-03-23T06:54:43.855Z,212
2018-03-23T06:55:43.822Z,220
2018-03-23T06:56:43.834Z,244
2018-03-23T06:57:43.913Z,232
2018-03-23T06:58:43.857Z,244
2018-03-23T06:59:43.301Z,280
2018-03-23T07:00:43.893Z,284
2018-03-23T07:01:43.611Z,268
2018-03-23T07:02:43.333Z,244
2018-03-23T07:03:43.690Z,236
2018-03-23T07:04:43.645Z,224
2018-03-23T07:05:43.652Z,228
2018-03-23T07:06:43.660Z,236
2018-03-23T07:07:43.958Z,228
2018-03-23T07:08:43.991Z,232
2018-03-23T07:09:43.699Z,228
2018-03-23T07:10:43.991Z,236
2018-03-23T07:11:43.718Z,224
2018-03-23T07:12:43.740Z,204
2018-03-23T07:13:43.475Z,224
2018-03-23T07:14:43.758Z,236
2018-03-23T07:15:44.096Z,240
2018-03-23T07:16:44.060Z,220
2018-03-23T07:17:43.796Z,224
2018-03-23T07:18:44.092Z,232
2018-03-23T07:19:44.100Z,244
2018-03-23T07:20:43.544Z,228
2018-03-23T07:21:43.834Z,236
2018-03-23T07:22:43.283Z,248
2018-03-23T07:23:43.574Z,268
2018-03-23T07:24:43.583Z,272
2018-03-23T07:25:43.596Z,312
2018-03-23T07:26:43.615Z,332
2018-03-23T07:27:44.183Z,320
2018-03-23T07:28:43.990Z,312
2018-03-23T07:29:43.645Z,300
2018-03-23T07:30:44.216Z,272
2018-03-23T07:31:43.956Z,300
2018-03-23T07:32:43.956Z,292
2018-03-23T07:33:43.744Z,304
2018-03-23T07:34:43.705Z,316
2018-03-23T07:35:44.005Z,352
2018-03-23T07:36:44.004Z,448
2018-03-23T07:37:44.413Z,500
2018-03-23T07:38:44.033Z,532
2018-03-23T07:39:44.048Z,548
2018-03-23T07:40:43.769Z,656
2018-03-23T07:41:43.782Z,632
2018-03-23T07:42:43.797Z,620
2018-03-23T07:43:43.854Z,592
2018-03-23T07:44:44.097Z,684
2018-03-23T07:45:44.402Z,728
2018-03-23T07:46:44.403Z,728
2018-03-23T07:47:44.137Z,692
2018-03-23T07:48:44.153Z,708
2018-03-23T07:49:44.471Z,760
2018-03-23T07:50:43.889Z,764
2018-03-23T07:51:43.897Z,820
2018-03-23T07:52:44.207Z,812
2018-03-23T07:53:44.267Z,792
2018-03-23T07:54:44.216Z,772
2018-03-23T07:55:44.512Z,856
2018-03-23T07:56:44.238Z,924
2018-03-23T07:57:43.972Z,884
2018-03-23T07:58:44.269Z,796
2018-03-23T07:59:44.558Z,764
2018-03-23T08:00:44.574Z,684
2018-03-23T08:01:44.296Z,596
2018-03-23T08:02:44.590Z,736
2018-03-23T08:03:44.223Z,848
2018-03-23T08:04:44.332Z,912
2018-03-23T08:05:44.343Z,936
2018-03-23T08:06:44.356Z,880
2018-03-23T08:07:44.657Z,880
2018-03-23T08:08:44.380Z,924
2018-03-23T08:09:44.674Z,1128
2018-03-23T08:10:44.702Z,1028
2018-03-23T08:11:44.417Z,1012
2018-03-23T08:12:44.146Z,860
2018-03-23T08:13:44.210Z,876
2018-03-23T08:14:44.742Z,1000
2018-03-23T08:15:44.468Z,952
2018-03-23T08:16:44.481Z,952
2018-03-23T08:17:44.489Z,1236
2018-03-23T08:18:44.557Z,1336
2018-03-23T08:19:44.243Z,1072
2018-03-23T08:20:44.526Z,1020
2018-03-23T08:21:44.257Z,1008
2018-03-23T08:22:44.847Z,1124
2018-03-23T08:23:44.286Z,1096
2018-03-23T08:24:44.570Z,1176
2018-03-23T08:25:44.581Z,1420
2018-03-23T08:26:44.648Z,1516
2018-03-23T08:27:44.323Z,1544
2018-03-23T08:28:44.336Z,1416
2018-03-23T08:29:44.351Z,1324
2018-03-23T08:30:44.927Z,1340
2018-03-23T08:31:44.961Z,1296
2018-03-23T08:32:44.988Z,1248
2018-03-23T08:33:45.012Z,1308
2018-03-23T08:34:44.975Z,1500
2018-03-23T08:35:44.425Z,1412
2018-03-23T08:36:44.727Z,1552
2018-03-23T08:37:44.742Z,1464
2018-03-23T08:38:44.178Z,1496
2018-03-23T08:39:44.761Z,1480
2018-03-23T08:40:44.483Z,1384
2018-03-23T08:41:44.801Z,1472
2018-03-23T08:42:44.510Z,1748
2018-03-23T08:43:44.825Z,1952
2018-03-23T08:44:44.936Z,1976
2018-03-23T08:45:44.829Z,1828
2018-03-23T08:46:44.848Z,1712
2018-03-23T08:47:44.872Z,1724
2018-03-23T08:48:44.865Z,1788
2018-03-23T08:49:44.886Z,1636
2018-03-23T08:50:45.179Z,1680
2018-03-23T08:51:45.199Z,1816
2018-03-23T08:52:45.199Z,1916
2018-03-23T08:53:44.654Z,1816
2018-03-23T08:54:44.990Z,1748
2018-03-23T08:55:44.955Z,1632
2018-03-23T08:56:44.966Z,1476
2018-03-23T08:57:44.975Z,1516
2018-03-23T08:58:44.705Z,1704
2018-03-23T08:59:45.052Z,1712
2018-03-23T09:00:44.449Z,1628
2018-03-23T09:01:45.032Z,1584
2018-03-23T09:02:45.042Z,1640
2018-03-23T09:03:45.052Z,1892
2018-03-23T09:04:45.064Z,1900
2018-03-23T09:05:44.801Z,1772
2018-03-23T09:06:44.815Z,1848
2018-03-23T09:07:45.386Z,1920
2018-03-23T09:08:44.830Z,1980
2018-03-23T09:09:45.262Z,1856
2018-03-23T09:10:45.426Z,1980
2018-03-23T09:11:45.438Z,1976
2018-03-23T09:12:45.454Z,1800
2018-03-23T09:13:44.894Z,1648
2018-03-23T09:14:45.533Z,1624
2018-03-23T09:15:45.501Z,1768
2018-03-23T09:16:45.676Z,1640
2018-03-23T09:17:45.228Z,1872
2018-03-23T09:18:45.248Z,1784
2018-03-23T09:19:44.972Z,1620
2018-03-23T09:20:45.645Z,1552
2018-03-23T09:21:45.283Z,1776
2018-03-23T09:22:45.011Z,1672
2018-03-23T09:23:45.593Z,1584
2018-03-23T09:24:45.087Z,1504
2018-03-23T09:25:45.052Z,1668
2018-03-23T09:26:45.554Z,1756
2018-03-23T09:27:45.649Z,1772
2018-03-23T09:28:45.379Z,1684
2018-03-23T09:29:45.110Z,1640
2018-03-23T09:30:45.409Z,1752
2018-03-23T09:31:45.414Z,1704
2018-03-23T09:32:45.712Z,1660
2018-03-23T09:33:45.721Z,1772
2018-03-23T09:34:45.749Z,1728
2018-03-23T09:35:45.465Z,1608
2018-03-23T09:36:44.919Z,1608
2018-03-23T09:37:45.781Z,1640
2018-03-23T09:38:45.221Z,1620
2018-03-23T09:39:45.249Z,1632
2018-03-23T09:40:45.816Z,1572
2018-03-23T09:41:45.548Z,1444
2018-03-23T09:42:45.844Z,1320
2018-03-23T09:43:45.289Z,1328
2018-03-23T09:44:45.635Z,1264
2018-03-23T09:45:45.604Z,1236
2018-03-23T09:46:45.616Z,1204
2018-03-23T09:47:45.910Z,1392
2018-03-23T09:48:46.023Z,1560
2018-03-23T09:49:45.654Z,1816
2018-03-23T09:50:45.951Z,1608
2018-03-23T09:51:45.680Z,1464
2018-03-23T09:52:45.695Z,1500
2018-03-23T09:53:45.997Z,1408
2018-03-23T09:54:45.723Z,1252
2018-03-23T09:55:45.734Z,1276
2018-03-23T09:56:46.034Z,1420
2018-03-23T09:57:45.475Z,908
2018-03-23T09:58:46.062Z,808
2018-03-23T09:59:46.072Z,956
2018-03-23T10:00:45.798Z,1404
2018-03-23T10:01:45.818Z,1832
2018-03-23T10:02:46.111Z,1400
2018-03-23T10:03:45.595Z,1144
2018-03-23T10:04:46.158Z,1420
2018-03-23T10:05:45.587Z,2464
2018-03-23T10:06:45.887Z,2752
2018-03-23T10:07:46.181Z,2564
2018-03-23T10:08:45.350Z,2384
2018-03-23T10:09:45.922Z,2316
2018-03-23T10:10:45.661Z,2340
2018-03-23T10:11:45.955Z,1716
2018-03-23T10:12:45.974Z,2152
2018-03-23T10:13:45.978Z,2760
2018-03-23T10:14:45.996Z,2968
2018-03-23T10:15:45.721Z,2024
2018-03-23T10:16:46.298Z,1848
2018-03-23T10:17:46.311Z,2424
2018-03-23T10:18:46.340Z,3152
2018-03-23T10:19:46.404Z,2852
2018-03-23T10:20:46.227Z,2844
2018-03-23T10:21:46.578Z,2528
2018-03-23T10:22:46.098Z,2728
2018-03-23T10:23:46.398Z,2516
2018-03-23T10:24:45.893Z,2088
2018-03-23T10:25:46.425Z,2000
2018-03-23T10:26:46.153Z,1924
2018-03-23T10:27:46.171Z,2412
2018-03-23T10:28:46.315Z,2644
2018-03-23T10:29:45.913Z,3232
2018-03-23T10:30:46.216Z,2692
2018-03-23T10:31:46.518Z,2620
2018-03-23T10:32:46.243Z,2140
2018-03-23T10:33:46.279Z,2696
2018-03-23T10:34:45.988Z,2536
2018-03-23T10:35:46.334Z,2632
2018-03-23T10:36:46.304Z,2360
2018-03-23T10:37:45.742Z,2064
2018-03-23T10:38:46.331Z,3096
2018-03-23T10:39:45.771Z,2832
2018-03-23T10:40:45.785Z,2728
2018-03-23T10:41:46.080Z,2832
2018-03-23T10:42:46.378Z,2848
2018-03-23T10:43:46.394Z,2684
2018-03-23T10:44:46.688Z,2440
2018-03-23T10:45:46.578Z,2584
2018-03-23T10:46:46.222Z,2800
2018-03-23T10:47:46.164Z,2632
2018-03-23T10:48:46.465Z,2168
2018-03-23T10:49:45.911Z,2472
2018-03-23T10:50:46.491Z,2548
2018-03-23T10:51:46.514Z,2748
2018-03-23T10:52:46.634Z,2120
2018-03-23T10:53:46.254Z,2636
2018-03-23T10:54:46.833Z,3308
2018-03-23T10:55:46.614Z,2980
2018-03-23T10:56:46.296Z,2592
2018-03-23T10:57:46.591Z,2600
2018-03-23T10:58:46.609Z,2876
2018-03-23T10:59:46.643Z,2360
2018-03-23T11:00:46.944Z,2712
2018-03-23T11:01:46.368Z,2704
2018-03-23T11:02:46.688Z,2100
2018-03-23T11:03:46.678Z,1784
2018-03-23T11:04:46.979Z,3052
2018-03-23T11:05:46.713Z,2576
2018-03-23T11:06:47.018Z,2380
2018-03-23T11:07:46.756Z,3128
2018-03-23T11:08:46.754Z,2276
2018-03-23T11:09:46.486Z,1744
2018-03-23T11:10:46.790Z,2248
2018-03-23T11:11:46.796Z,2568
2018-03-23T11:12:47.099Z,2312
2018-03-23T11:13:46.832Z,2060
2018-03-23T11:14:46.564Z,2648
2018-03-23T11:15:47.205Z,2908
2018-03-23T11:16:46.879Z,2940
2018-03-23T11:17:46.885Z,2792
2018-03-23T11:18:46.911Z,2812
2018-03-23T11:19:46.915Z,3192
2018-03-23T11:20:46.427Z,3028
2018-03-23T11:21:46.666Z,2016
2018-03-23T11:22:46.681Z,1916
2018-03-23T11:23:47.256Z,2268
2018-03-23T11:24:46.428Z,1752
2018-03-23T11:25:47.293Z,1540
2018-03-23T11:26:46.742Z,1668
2018-03-23T11:27:46.757Z,2024
2018-03-23T11:28:47.336Z,1744
2018-03-23T11:29:46.780Z,1716
2018-03-23T11:30:46.802Z,1728
2018-03-23T11:31:47.376Z,1440
2018-03-23T11:32:47.114Z,1520
2018-03-23T11:33:46.839Z,2476
2018-03-23T11:34:47.423Z,3048
2018-03-23T11:35:47.489Z,3204
2018-03-23T11:36:47.456Z,2448
2018-03-23T11:37:47.474Z,1848
2018-03-23T11:38:47.200Z,1684
2018-03-23T11:39:47.216Z,2060
2018-03-23T11:40:47.226Z,2272
2018-03-23T11:41:47.263Z,1968
2018-03-23T11:42:46.980Z,1852
2018-03-23T11:43:47.558Z,1376
2018-03-23T11:44:47.704Z,1128
2018-03-23T11:45:47.304Z,1028
2018-03-23T11:46:47.034Z,1016
2018-03-23T11:47:47.050Z,1216
2018-03-23T11:48:47.348Z,1492
2018-03-23T11:49:47.087Z,1796
2018-03-23T11:50:46.855Z,2464
2018-03-23T11:51:47.406Z,2056
2018-03-23T11:52:47.708Z,1772
2018-03-23T11:53:46.862Z,1848
2018-03-23T11:54:47.156Z,1900
2018-03-23T11:55:47.457Z,1976
2018-03-23T11:56:47.477Z,1920
2018-03-23T11:57:47.490Z,2532
2018-03-23T11:58:47.509Z,2636
2018-03-23T11:59:47.803Z,2296
2018-03-23T12:00:47.585Z,2016
2018-03-23T12:01:47.842Z,1684
2018-03-23T12:02:47.856Z,1632
2018-03-23T12:03:47.870Z,1504
2018-03-23T12:04:47.598Z,1488
2018-03-23T12:05:47.340Z,1780
2018-03-23T12:06:47.912Z,2212
2018-03-23T12:07:47.646Z,2420
2018-03-23T12:08:47.933Z,2280
2018-03-23T12:09:47.387Z,2528
2018-03-23T12:10:48.004Z,2672
2018-03-23T12:11:47.704Z,2664
2018-03-23T12:12:47.717Z,2920
2018-03-23T12:13:47.730Z,3196
2018-03-23T12:14:47.464Z,3264
2018-03-23T12:15:47.761Z,3256
2018-03-23T12:16:47.784Z,3048
2018-03-23T12:17:48.073Z,2236
2018-03-23T12:18:48.090Z,2060
2018-03-23T12:19:47.254Z,2048
2018-03-23T12:20:47.904Z,2436
2018-03-23T12:21:47.574Z,2336
2018-03-23T12:22:48.167Z,2144
2018-03-23T12:23:47.884Z,1640
2018-03-23T12:24:47.899Z,1536
2018-03-23T12:25:47.629Z,1628
2018-03-23T12:26:47.646Z,1712
2018-03-23T12:27:48.235Z,1800
2018-03-23T12:28:47.992Z,1924
2018-03-23T12:29:47.974Z,2276
2018-03-23T12:30:48.334Z,2400
2018-03-23T12:31:48.292Z,1984
2018-03-23T12:32:48.308Z,1628
2018-03-23T12:33:48.321Z,1420
2018-03-23T12:34:48.098Z,1276
2018-03-23T12:35:48.355Z,1336
2018-03-23T12:36:48.084Z,1476
2018-03-23T12:37:48.387Z,1536
2018-03-23T12:38:47.553Z,1620
2018-03-23T12:39:47.850Z,1832
2018-03-23T12:40:47.870Z,1792
2018-03-23T12:41:47.933Z,2468
2018-03-23T12:42:48.466Z,2784
2018-03-23T12:43:48.207Z,3132
2018-03-23T12:44:48.210Z,3036
2018-03-23T12:45:48.289Z,2540
2018-03-23T12:46:48.323Z,2492
2018-03-23T12:47:48.257Z,2672
2018-03-23T12:48:47.993Z,2396
2018-03-23T12:49:48.571Z,2132
2018-03-23T12:50:48.021Z,2360
2018-03-23T12:51:48.719Z,2100
2018-03-23T12:52:48.048Z,2324
2018-03-23T12:53:48.641Z,3016
2018-03-23T12:54:48.085Z,2916
2018-03-23T12:55:48.104Z,2724
2018-03-23T12:56:48.683Z,2956
2018-03-23T12:57:47.853Z,2892
2018-03-23T12:58:48.435Z,2880
2018-03-23T12:59:48.443Z,3288
2018-03-23T13:00:48.471Z,3324
2018-03-23T13:01:48.249Z,3292
2018-03-23T13:02:48.207Z,2712
2018-03-23T13:03:48.963Z,2836
2018-03-23T13:04:48.529Z,2736
2018-03-23T13:05:48.263Z,2492
2018-03-23T13:06:48.905Z,2328
2018-03-23T13:07:48.860Z,1948
2018-03-23T13:08:48.880Z,1868
2018-03-23T13:09:48.608Z,2076
2018-03-23T13:10:48.615Z,1956
2018-03-23T13:11:48.920Z,2024
2018-03-23T13:12:48.084Z,2572
2018-03-23T13:13:48.948Z,2992
2018-03-23T13:14:48.497Z,2868
2018-03-23T13:15:48.707Z,3420
2018-03-23T13:16:49.056Z,3392
2018-03-23T13:17:48.738Z,2552
2018-03-23T13:18:48.754Z,2436
2018-03-23T13:19:48.822Z,2380
2018-03-23T13:20:48.502Z,2408
2018-03-23T13:21:48.802Z,2612
2018-03-23T13:22:48.740Z,2420
2018-03-23T13:23:48.831Z,2212
2018-03-23T13:24:48.564Z,1956
2018-03-23T13:25:48.584Z,2036
2018-03-23T13:26:49.219Z,2420
2018-03-23T13:27:48.899Z,2616
2018-03-23T13:28:48.927Z,2780
2018-03-23T13:29:48.935Z,2592
2018-03-23T13:30:49.232Z,2468
2018-03-23T13:31:49.249Z,2576
2018-03-23T13:32:48.413Z,2836
2018-03-23T13:33:48.714Z,2864
2018-03-23T13:34:48.735Z,3160
2018-03-23T13:35:48.748Z,3328
2018-03-23T13:36:49.332Z,3128
2018-03-23T13:37:49.070Z,2988
2018-03-23T13:38:48.806Z,2904
2018-03-23T13:39:49.103Z,2856
2018-03-23T13:40:48.829Z,2496
2018-03-23T13:41:48.845Z,2052
2018-03-23T13:42:48.581Z,1588
2018-03-23T13:43:49.458Z,1588
2018-03-23T13:44:49.689Z,1944
2018-03-23T13:45:49.202Z,2140
2018-03-23T13:46:49.231Z,2288
2018-03-23T13:47:48.947Z,2448
2018-03-23T13:48:49.263Z,2376
2018-03-23T13:49:49.272Z,2192
2018-03-23T13:50:49.290Z,2304
2018-03-23T13:51:49.583Z,2500
2018-03-23T13:52:49.325Z,2432
2018-03-23T13:53:49.048Z,2500
2018-03-23T13:54:49.634Z,2608
2018-03-23T13:55:49.375Z,2296
2018-03-23T13:56:49.385Z,1712
2018-03-23T13:57:49.119Z,1764